sensor_id;sensor_type;location;lat;lon;timestamp;P1;durP1;ratioP1;P2;durP2;ratioP2
46643;SDS011;32371;51.032;5.816;2024-02-21T00:02:19;18.98;;;6.50;;
46643;SDS011;32371;51.032;5.816;2024-02-21T00:04:44;18.73;;;6.15;;
46643;SDS011;32371;51.032;5.816;2024-02-21T00:07:10;19.60;;;7.60;;
46643;SDS011;32371;51.032;5.816;2024-02-21T00:09:35;18.20;;;6.32;;
46643;SDS011;32371;51.032;5.816;2024-02-21T00:12:01;17.73;;;6.18;;
46643;SDS011;32371;51.032;5.816;2024-02-21T00:14:26;19.23;;;6.38;;
46643;SDS011;32371;51.032;5.816;2024-02-21T00:16:51;22.45;;;6.18;;
46643;SDS011;32371;51.032;5.816;2024-02-21T00:19:17;14.35;;;5.43;;
46643;SDS011;32371;51.032;5.816;2024-02-21T00:21:42;20.05;;;6.65;;
46643;SDS011;32371;51.032;5.816;2024-02-21T00:24:07;20.48;;;5.88;;
46643;SDS011;32371;51.032;5.816;2024-02-21T00:26:33;18.00;;;6.35;;
46643;SDS011;32371;51.032;5.816;2024-02-21T00:28:58;19.20;;;6.28;;
46643;SDS011;32371;51.032;5.816;2024-02-21T00:31:23;22.95;;;7.40;;
46643;SDS011;32371;51.032;5.816;2024-02-21T00:33:49;11.50;;;4.95;;
46643;SDS011;32371;51.032;5.816;2024-02-21T00:36:15;15.00;;;7.22;;
46643;SDS011;32371;51.032;5.816;2024-02-21T00:38:41;15.25;;;5.85;;
46643;SDS011;32371;51.032;5.816;2024-02-21T00:41:06;16.23;;;5.78;;
46643;SDS011;32371;51.032;5.816;2024-02-21T00:43:31;17.95;;;6.10;;
46643;SDS011;32371;51.032;5.816;2024-02-21T00:45:57;15.63;;;6.47;;
46643;SDS011;32371;51.032;5.816;2024-02-21T00:48:22;15.25;;;5.50;;
46643;SDS011;32371;51.032;5.816;2024-02-21T00:50:47;20.33;;;6.38;;
46643;SDS011;32371;51.032;5.816;2024-02-21T00:53:13;16.25;;;6.57;;
46643;SDS011;32371;51.032;5.816;2024-02-21T00:55:38;21.58;;;5.88;;
46643;SDS011;32371;51.032;5.816;2024-02-21T00:58:05;16.75;;;5.70;;
46643;SDS011;32371;51.032;5.816;2024-02-21T01:00:30;15.02;;;5.60;;
46643;SDS011;32371;51.032;5.816;2024-02-21T01:02:56;18.38;;;6.43;;
46643;SDS011;32371;51.032;5.816;2024-02-21T01:05:21;12.95;;;7.35;;
46643;SDS011;32371;51.032;5.816;2024-02-21T01:07:47;21.13;;;6.13;;
46643;SDS011;32371;51.032;5.816;2024-02-21T01:10:13;14.57;;;5.45;;
46643;SDS011;32371;51.032;5.816;2024-02-21T01:12:38;19.17;;;5.65;;
46643;SDS011;32371;51.032;5.816;2024-02-21T01:15:03;16.40;;;6.15;;
46643;SDS011;32371;51.032;5.816;2024-02-21T01:17:29;16.95;;;5.75;;
46643;SDS011;32371;51.032;5.816;2024-02-21T01:19:55;19.95;;;5.60;;
46643;SDS011;32371;51.032;5.816;2024-02-21T01:22:20;21.77;;;5.88;;
46643;SDS011;32371;51.032;5.816;2024-02-21T01:24:45;12.45;;;5.53;;
46643;SDS011;32371;51.032;5.816;2024-02-21T01:27:11;13.05;;;5.90;;
46643;SDS011;32371;51.032;5.816;2024-02-21T01:29:36;21.52;;;6.85;;
46643;SDS011;32371;51.032;5.816;2024-02-21T01:32:02;15.38;;;4.97;;
46643;SDS011;32371;51.032;5.816;2024-02-21T01:34:27;15.27;;;5.35;;
46643;SDS011;32371;51.032;5.816;2024-02-21T01:36:52;13.93;;;5.32;;
46643;SDS011;32371;51.032;5.816;2024-02-21T01:39:18;11.80;;;5.45;;
46643;SDS011;32371;51.032;5.816;2024-02-21T01:41:43;19.17;;;6.68;;
46643;SDS011;32371;51.032;5.816;2024-02-21T01:44:08;13.77;;;6.28;;
46643;SDS011;32371;51.032;5.816;2024-02-21T01:46:34;17.13;;;5.68;;
46643;SDS011;32371;51.032;5.816;2024-02-21T01:49:00;16.35;;;5.75;;
46643;SDS011;32371;51.032;5.816;2024-02-21T01:51:25;14.80;;;5.50;;
46643;SDS011;32371;51.032;5.816;2024-02-21T01:53:51;17.85;;;5.35;;
46643;SDS011;32371;51.032;5.816;2024-02-21T01:56:18;18.08;;;5.05;;
46643;SDS011;32371;51.032;5.816;2024-02-21T01:58:43;16.70;;;5.45;;
46643;SDS011;32371;51.032;5.816;2024-02-21T02:01:09;18.67;;;5.57;;
46643;SDS011;32371;51.032;5.816;2024-02-21T02:03:35;12.20;;;4.95;;
46643;SDS011;32371;51.032;5.816;2024-02-21T02:06:00;11.95;;;4.93;;
46643;SDS011;32371;51.032;5.816;2024-02-21T02:08:26;16.60;;;5.28;;
46643;SDS011;32371;51.032;5.816;2024-02-21T02:10:52;16.58;;;4.75;;
46643;SDS011;32371;51.032;5.816;2024-02-21T02:13:17;20.08;;;5.03;;
46643;SDS011;32371;51.032;5.816;2024-02-21T02:15:43;11.02;;;5.32;;
46643;SDS011;32371;51.032;5.816;2024-02-21T02:18:13;16.92;;;4.95;;
46643;SDS011;32371;51.032;5.816;2024-02-21T02:20:39;16.48;;;5.13;;
46643;SDS011;32371;51.032;5.816;2024-02-21T02:23:09;20.73;;;5.70;;
46643;SDS011;32371;51.032;5.816;2024-02-21T02:25:35;16.50;;;5.55;;
46643;SDS011;32371;51.032;5.816;2024-02-21T02:28:02;11.68;;;3.97;;
46643;SDS011;32371;51.032;5.816;2024-02-21T02:30:34;13.20;;;4.85;;
46643;SDS011;32371;51.032;5.816;2024-02-21T02:33:01;15.68;;;4.47;;
46643;SDS011;32371;51.032;5.816;2024-02-21T02:35:27;10.15;;;4.72;;
46643;SDS011;32371;51.032;5.816;2024-02-21T02:37:52;24.27;;;5.15;;
46643;SDS011;32371;51.032;5.816;2024-02-21T02:40:18;23.13;;;6.45;;
46643;SDS011;32371;51.032;5.816;2024-02-21T02:42:44;14.73;;;5.03;;
46643;SDS011;32371;51.032;5.816;2024-02-21T02:45:09;10.05;;;4.07;;
46643;SDS011;32371;51.032;5.816;2024-02-21T02:47:35;10.40;;;4.30;;
46643;SDS011;32371;51.032;5.816;2024-02-21T02:50:00;14.23;;;4.60;;
46643;SDS011;32371;51.032;5.816;2024-02-21T02:52:26;13.27;;;5.40;;
46643;SDS011;32371;51.032;5.816;2024-02-21T02:54:51;13.98;;;4.90;;
46643;SDS011;32371;51.032;5.816;2024-02-21T02:57:20;8.35;;;3.97;;
46643;SDS011;32371;51.032;5.816;2024-02-21T02:59:49;14.80;;;4.22;;
46643;SDS011;32371;51.032;5.816;2024-02-21T03:02:15;14.02;;;4.53;;
46643;SDS011;32371;51.032;5.816;2024-02-21T03:04:40;15.27;;;4.63;;
46643;SDS011;32371;51.032;5.816;2024-02-21T03:07:06;9.80;;;3.63;;
46643;SDS011;32371;51.032;5.816;2024-02-21T03:09:31;16.92;;;4.95;;
46643;SDS011;32371;51.032;5.816;2024-02-21T03:11:56;9.30;;;4.25;;
46643;SDS011;32371;51.032;5.816;2024-02-21T03:14:31;17.17;;;4.28;;
46643;SDS011;32371;51.032;5.816;2024-02-21T03:17:00;17.95;;;5.25;;
46643;SDS011;32371;51.032;5.816;2024-02-21T03:19:25;10.95;;;4.25;;
46643;SDS011;32371;51.032;5.816;2024-02-21T03:21:51;15.00;;;4.97;;
46643;SDS011;32371;51.032;5.816;2024-02-21T03:24:18;13.50;;;4.47;;
46643;SDS011;32371;51.032;5.816;2024-02-21T03:26:43;14.73;;;4.32;;
46643;SDS011;32371;51.032;5.816;2024-02-21T03:29:10;14.02;;;4.10;;
46643;SDS011;32371;51.032;5.816;2024-02-21T03:31:36;10.20;;;4.03;;
46643;SDS011;32371;51.032;5.816;2024-02-21T03:34:01;14.38;;;4.38;;
46643;SDS011;32371;51.032;5.816;2024-02-21T03:36:27;13.30;;;4.22;;
46643;SDS011;32371;51.032;5.816;2024-02-21T03:38:52;18.35;;;4.20;;
46643;SDS011;32371;51.032;5.816;2024-02-21T03:41:19;12.07;;;4.20;;
46643;SDS011;32371;51.032;5.816;2024-02-21T03:43:44;14.68;;;4.78;;
46643;SDS011;32371;51.032;5.816;2024-02-21T03:46:10;12.80;;;5.00;;
46643;SDS011;32371;51.032;5.816;2024-02-21T03:48:35;14.23;;;4.43;;
46643;SDS011;32371;51.032;5.816;2024-02-21T03:51:01;7.72;;;4.03;;
46643;SDS011;32371;51.032;5.816;2024-02-21T03:53:26;11.15;;;4.55;;
46643;SDS011;32371;51.032;5.816;2024-02-21T03:55:51;14.30;;;4.68;;
46643;SDS011;32371;51.032;5.816;2024-02-21T03:58:17;10.35;;;4.55;;
46643;SDS011;32371;51.032;5.816;2024-02-21T04:00:42;9.10;;;4.28;;
46643;SDS011;32371;51.032;5.816;2024-02-21T04:03:07;15.32;;;4.15;;
46643;SDS011;32371;51.032;5.816;2024-02-21T04:05:33;17.25;;;4.03;;
46643;SDS011;32371;51.032;5.816;2024-02-21T04:07:58;11.50;;;4.00;;
46643;SDS011;32371;51.032;5.816;2024-02-21T04:10:24;10.98;;;4.15;;
46643;SDS011;32371;51.032;5.816;2024-02-21T04:12:49;13.27;;;3.75;;
46643;SDS011;32371;51.032;5.816;2024-02-21T04:15:15;8.77;;;3.65;;
46643;SDS011;32371;51.032;5.816;2024-02-21T04:17:41;11.43;;;5.30;;
46643;SDS011;32371;51.032;5.816;2024-02-21T04:20:13;12.43;;;4.70;;
46643;SDS011;32371;51.032;5.816;2024-02-21T04:22:39;11.65;;;4.22;;
46643;SDS011;32371;51.032;5.816;2024-02-21T04:25:05;11.60;;;3.97;;
46643;SDS011;32371;51.032;5.816;2024-02-21T04:27:30;13.07;;;3.90;;
46643;SDS011;32371;51.032;5.816;2024-02-21T04:29:56;17.23;;;4.72;;
46643;SDS011;32371;51.032;5.816;2024-02-21T04:32:21;17.17;;;4.32;;
46643;SDS011;32371;51.032;5.816;2024-02-21T04:34:46;12.68;;;4.47;;
46643;SDS011;32371;51.032;5.816;2024-02-21T04:37:12;7.10;;;3.28;;
46643;SDS011;32371;51.032;5.816;2024-02-21T04:39:37;19.38;;;4.35;;
46643;SDS011;32371;51.032;5.816;2024-02-21T04:42:02;15.95;;;5.00;;
46643;SDS011;32371;51.032;5.816;2024-02-21T04:44:28;13.63;;;4.90;;
46643;SDS011;32371;51.032;5.816;2024-02-21T04:46:53;12.43;;;3.97;;
46643;SDS011;32371;51.032;5.816;2024-02-21T04:49:19;13.05;;;4.82;;
46643;SDS011;32371;51.032;5.816;2024-02-21T04:51:44;16.35;;;4.32;;
46643;SDS011;32371;51.032;5.816;2024-02-21T04:54:09;16.20;;;4.57;;
46643;SDS011;32371;51.032;5.816;2024-02-21T04:56:35;12.43;;;5.38;;
46643;SDS011;32371;51.032;5.816;2024-02-21T04:59:00;12.13;;;4.05;;
46643;SDS011;32371;51.032;5.816;2024-02-21T05:01:25;13.35;;;4.85;;
46643;SDS011;32371;51.032;5.816;2024-02-21T05:03:51;12.73;;;4.35;;
46643;SDS011;32371;51.032;5.816;2024-02-21T05:06:16;14.25;;;3.83;;
46643;SDS011;32371;51.032;5.816;2024-02-21T05:08:41;9.00;;;3.97;;
46643;SDS011;32371;51.032;5.816;2024-02-21T05:11:07;8.32;;;4.07;;
46643;SDS011;32371;51.032;5.816;2024-02-21T05:13:32;10.73;;;3.33;;
46643;SDS011;32371;51.032;5.816;2024-02-21T05:15:58;10.23;;;3.95;;
46643;SDS011;32371;51.032;5.816;2024-02-21T05:18:26;15.57;;;3.95;;
46643;SDS011;32371;51.032;5.816;2024-02-21T05:20:52;16.20;;;3.90;;
46643;SDS011;32371;51.032;5.816;2024-02-21T05:23:17;5.63;;;3.22;;
46643;SDS011;32371;51.032;5.816;2024-02-21T05:25:42;9.18;;;4.47;;
46643;SDS011;32371;51.032;5.816;2024-02-21T05:28:08;7.32;;;3.47;;
46643;SDS011;32371;51.032;5.816;2024-02-21T05:30:33;8.95;;;3.42;;
46643;SDS011;32371;51.032;5.816;2024-02-21T05:32:58;14.77;;;3.88;;
46643;SDS011;32371;51.032;5.816;2024-02-21T05:35:27;7.00;;;3.22;;
46643;SDS011;32371;51.032;5.816;2024-02-21T05:37:53;7.93;;;4.10;;
46643;SDS011;32371;51.032;5.816;2024-02-21T05:40:18;6.90;;;3.63;;
46643;SDS011;32371;51.032;5.816;2024-02-21T05:42:44;12.25;;;3.33;;
46643;SDS011;32371;51.032;5.816;2024-02-21T05:45:09;10.38;;;2.97;;
46643;SDS011;32371;51.032;5.816;2024-02-21T05:47:34;11.20;;;2.80;;
46643;SDS011;32371;51.032;5.816;2024-02-21T05:50:00;9.50;;;3.10;;
46643;SDS011;32371;51.032;5.816;2024-02-21T05:52:25;9.02;;;3.28;;
46643;SDS011;32371;51.032;5.816;2024-02-21T05:54:51;10.95;;;3.67;;
46643;SDS011;32371;51.032;5.816;2024-02-21T05:57:17;9.23;;;3.58;;
46643;SDS011;32371;51.032;5.816;2024-02-21T05:59:43;7.53;;;3.58;;
46643;SDS011;32371;51.032;5.816;2024-02-21T06:02:08;8.23;;;3.28;;
46643;SDS011;32371;51.032;5.816;2024-02-21T06:04:34;10.80;;;3.35;;
46643;SDS011;32371;51.032;5.816;2024-02-21T06:06:59;9.02;;;3.15;;
46643;SDS011;32371;51.032;5.816;2024-02-21T06:09:25;7.75;;;3.13;;
46643;SDS011;32371;51.032;5.816;2024-02-21T06:11:50;13.77;;;4.97;;
46643;SDS011;32371;51.032;5.816;2024-02-21T06:14:16;7.82;;;2.63;;
46643;SDS011;32371;51.032;5.816;2024-02-21T06:16:42;9.65;;;3.15;;
46643;SDS011;32371;51.032;5.816;2024-02-21T06:19:08;12.85;;;4.00;;
46643;SDS011;32371;51.032;5.816;2024-02-21T06:21:34;11.10;;;4.30;;
46643;SDS011;32371;51.032;5.816;2024-02-21T06:23:59;11.73;;;3.65;;
46643;SDS011;32371;51.032;5.816;2024-02-21T06:26:25;10.00;;;2.95;;
46643;SDS011;32371;51.032;5.816;2024-02-21T06:28:50;6.03;;;2.50;;
46643;SDS011;32371;51.032;5.816;2024-02-21T06:31:15;6.60;;;2.72;;
46643;SDS011;32371;51.032;5.816;2024-02-21T06:33:41;10.48;;;3.03;;
46643;SDS011;32371;51.032;5.816;2024-02-21T06:36:06;12.50;;;2.92;;
46643;SDS011;32371;51.032;5.816;2024-02-21T06:38:32;7.55;;;3.53;;
46643;SDS011;32371;51.032;5.816;2024-02-21T06:40:59;7.05;;;3.22;;
46643;SDS011;32371;51.032;5.816;2024-02-21T06:43:25;9.57;;;3.28;;
46643;SDS011;32371;51.032;5.816;2024-02-21T06:45:51;11.05;;;3.03;;
46643;SDS011;32371;51.032;5.816;2024-02-21T06:48:16;8.68;;;3.00;;
46643;SDS011;32371;51.032;5.816;2024-02-21T06:50:43;17.00;;;2.92;;
46643;SDS011;32371;51.032;5.816;2024-02-21T06:53:08;11.82;;;2.65;;
46643;SDS011;32371;51.032;5.816;2024-02-21T06:55:34;6.38;;;3.00;;
46643;SDS011;32371;51.032;5.816;2024-02-21T06:57:59;7.97;;;2.78;;
46643;SDS011;32371;51.032;5.816;2024-02-21T07:00:24;7.68;;;2.20;;
46643;SDS011;32371;51.032;5.816;2024-02-21T07:02:50;9.50;;;2.63;;
46643;SDS011;32371;51.032;5.816;2024-02-21T07:05:16;10.80;;;3.33;;
46643;SDS011;32371;51.032;5.816;2024-02-21T07:07:41;7.75;;;3.78;;
46643;SDS011;32371;51.032;5.816;2024-02-21T07:10:06;12.50;;;3.35;;
46643;SDS011;32371;51.032;5.816;2024-02-21T07:12:32;13.10;;;3.40;;
46643;SDS011;32371;51.032;5.816;2024-02-21T07:14:58;9.02;;;2.88;;
46643;SDS011;32371;51.032;5.816;2024-02-21T07:17:23;10.32;;;2.83;;
46643;SDS011;32371;51.032;5.816;2024-02-21T07:19:49;6.50;;;2.95;;
46643;SDS011;32371;51.032;5.816;2024-02-21T07:22:14;9.52;;;2.60;;
46643;SDS011;32371;51.032;5.816;2024-02-21T07:24:40;11.32;;;4.28;;
46643;SDS011;32371;51.032;5.816;2024-02-21T07:27:05;3.83;;;3.17;;
46643;SDS011;32371;51.032;5.816;2024-02-21T07:29:30;8.98;;;2.40;;
46643;SDS011;32371;51.032;5.816;2024-02-21T07:31:56;12.27;;;3.67;;
46643;SDS011;32371;51.032;5.816;2024-02-21T07:34:21;9.18;;;3.63;;
46643;SDS011;32371;51.032;5.816;2024-02-21T07:36:48;17.88;;;4.57;;
46643;SDS011;32371;51.032;5.816;2024-02-21T07:39:13;16.13;;;2.67;;
46643;SDS011;32371;51.032;5.816;2024-02-21T07:41:39;6.03;;;3.17;;
46643;SDS011;32371;51.032;5.816;2024-02-21T07:44:05;8.93;;;2.90;;
46643;SDS011;32371;51.032;5.816;2024-02-21T07:46:30;9.27;;;2.53;;
46643;SDS011;32371;51.032;5.816;2024-02-21T07:48:56;5.38;;;2.53;;
46643;SDS011;32371;51.032;5.816;2024-02-21T07:51:21;7.85;;;2.65;;
46643;SDS011;32371;51.032;5.816;2024-02-21T07:53:46;10.98;;;4.57;;
46643;SDS011;32371;51.032;5.816;2024-02-21T07:56:12;10.10;;;3.60;;
46643;SDS011;32371;51.032;5.816;2024-02-21T07:58:38;5.50;;;2.55;;
46643;SDS011;32371;51.032;5.816;2024-02-21T08:01:04;9.05;;;2.00;;
46643;SDS011;32371;51.032;5.816;2024-02-21T08:03:29;7.60;;;3.08;;
46643;SDS011;32371;51.032;5.816;2024-02-21T08:05:55;8.85;;;2.97;;
46643;SDS011;32371;51.032;5.816;2024-02-21T08:08:20;7.10;;;2.60;;
46643;SDS011;32371;51.032;5.816;2024-02-21T08:10:47;15.35;;;4.57;;
46643;SDS011;32371;51.032;5.816;2024-02-21T08:13:13;11.43;;;2.95;;
46643;SDS011;32371;51.032;5.816;2024-02-21T08:15:39;8.30;;;2.83;;
46643;SDS011;32371;51.032;5.816;2024-02-21T08:18:06;7.47;;;2.55;;
46643;SDS011;32371;51.032;5.816;2024-02-21T08:20:32;11.85;;;3.55;;
46643;SDS011;32371;51.032;5.816;2024-02-21T08:22:57;10.48;;;3.22;;
46643;SDS011;32371;51.032;5.816;2024-02-21T08:25:22;10.27;;;2.83;;
46643;SDS011;32371;51.032;5.816;2024-02-21T08:27:48;7.45;;;2.45;;
46643;SDS011;32371;51.032;5.816;2024-02-21T08:30:13;10.13;;;2.92;;
46643;SDS011;32371;51.032;5.816;2024-02-21T08:32:39;9.93;;;3.20;;
46643;SDS011;32371;51.032;5.816;2024-02-21T08:35:04;11.55;;;3.15;;
46643;SDS011;32371;51.032;5.816;2024-02-21T08:37:30;8.40;;;2.92;;
46643;SDS011;32371;51.032;5.816;2024-02-21T08:39:55;5.82;;;2.97;;
46643;SDS011;32371;51.032;5.816;2024-02-21T08:42:21;6.70;;;3.17;;
46643;SDS011;32371;51.032;5.816;2024-02-21T08:44:46;10.32;;;2.50;;
46643;SDS011;32371;51.032;5.816;2024-02-21T08:47:12;9.15;;;3.55;;
46643;SDS011;32371;51.032;5.816;2024-02-21T08:49:37;6.43;;;2.60;;
46643;SDS011;32371;51.032;5.816;2024-02-21T08:52:03;9.25;;;2.72;;
46643;SDS011;32371;51.032;5.816;2024-02-21T08:54:28;7.85;;;3.80;;
46643;SDS011;32371;51.032;5.816;2024-02-21T08:56:54;9.88;;;2.28;;
46643;SDS011;32371;51.032;5.816;2024-02-21T08:59:19;8.15;;;2.45;;
46643;SDS011;32371;51.032;5.816;2024-02-21T09:01:45;10.75;;;3.05;;
46643;SDS011;32371;51.032;5.816;2024-02-21T09:04:11;11.77;;;3.17;;
46643;SDS011;32371;51.032;5.816;2024-02-21T09:06:36;10.73;;;3.25;;
46643;SDS011;32371;51.032;5.816;2024-02-21T09:09:04;5.45;;;2.47;;
46643;SDS011;32371;51.032;5.816;2024-02-21T09:11:29;11.40;;;2.28;;
46643;SDS011;32371;51.032;5.816;2024-02-21T09:13:55;8.45;;;2.72;;
46643;SDS011;32371;51.032;5.816;2024-02-21T09:16:20;10.23;;;3.50;;
46643;SDS011;32371;51.032;5.816;2024-02-21T09:18:46;12.25;;;3.22;;
46643;SDS011;32371;51.032;5.816;2024-02-21T09:21:11;10.35;;;2.25;;
46643;SDS011;32371;51.032;5.816;2024-02-21T09:23:37;9.45;;;2.72;;
46643;SDS011;32371;51.032;5.816;2024-02-21T09:26:02;12.88;;;2.40;;
46643;SDS011;32371;51.032;5.816;2024-02-21T09:28:29;8.55;;;2.60;;
46643;SDS011;32371;51.032;5.816;2024-02-21T09:30:55;10.82;;;3.33;;
46643;SDS011;32371;51.032;5.816;2024-02-21T09:33:20;6.28;;;2.55;;
46643;SDS011;32371;51.032;5.816;2024-02-21T09:35:45;11.25;;;3.00;;
46643;SDS011;32371;51.032;5.816;2024-02-21T09:38:12;8.90;;;2.30;;
46643;SDS011;32371;51.032;5.816;2024-02-21T09:40:37;5.70;;;2.22;;
46643;SDS011;32371;51.032;5.816;2024-02-21T09:43:04;5.95;;;2.42;;
46643;SDS011;32371;51.032;5.816;2024-02-21T09:45:31;8.15;;;2.42;;
46643;SDS011;32371;51.032;5.816;2024-02-21T09:48:05;6.43;;;2.55;;
46643;SDS011;32371;51.032;5.816;2024-02-21T09:50:41;8.43;;;3.05;;
46643;SDS011;32371;51.032;5.816;2024-02-21T09:53:09;9.38;;;2.92;;
46643;SDS011;32371;51.032;5.816;2024-02-21T09:55:37;3.50;;;1.90;;
46643;SDS011;32371;51.032;5.816;2024-02-21T09:58:05;5.60;;;2.35;;
46643;SDS011;32371;51.032;5.816;2024-02-21T10:00:30;14.68;;;2.92;;
46643;SDS011;32371;51.032;5.816;2024-02-21T10:02:56;9.95;;;2.50;;
46643;SDS011;32371;51.032;5.816;2024-02-21T10:05:21;6.43;;;1.92;;
46643;SDS011;32371;51.032;5.816;2024-02-21T10:07:48;6.20;;;2.25;;
46643;SDS011;32371;51.032;5.816;2024-02-21T10:10:14;11.23;;;3.10;;
46643;SDS011;32371;51.032;5.816;2024-02-21T10:12:48;8.00;;;2.80;;
46643;SDS011;32371;51.032;5.816;2024-02-21T10:15:19;5.10;;;2.33;;
46643;SDS011;32371;51.032;5.816;2024-02-21T10:17:45;15.88;;;2.38;;
46643;SDS011;32371;51.032;5.816;2024-02-21T10:20:10;7.95;;;2.05;;
46643;SDS011;32371;51.032;5.816;2024-02-21T10:22:37;4.97;;;2.05;;
46643;SDS011;32371;51.032;5.816;2024-02-21T10:25:13;13.50;;;2.92;;
46643;SDS011;32371;51.032;5.816;2024-02-21T10:27:39;9.40;;;3.00;;
46643;SDS011;32371;51.032;5.816;2024-02-21T10:30:08;8.93;;;2.53;;
46643;SDS011;32371;51.032;5.816;2024-02-21T10:32:50;8.35;;;3.08;;
46643;SDS011;32371;51.032;5.816;2024-02-21T10:35:26;5.32;;;2.00;;
46643;SDS011;32371;51.032;5.816;2024-02-21T10:37:53;5.15;;;2.15;;
46643;SDS011;32371;51.032;5.816;2024-02-21T10:40:22;6.82;;;2.33;;
46643;SDS011;32371;51.032;5.816;2024-02-21T10:42:52;4.07;;;2.25;;
46643;SDS011;32371;51.032;5.816;2024-02-21T10:45:22;5.93;;;2.20;;
46643;SDS011;32371;51.032;5.816;2024-02-21T10:47:48;6.72;;;2.30;;
46643;SDS011;32371;51.032;5.816;2024-02-21T10:50:17;6.10;;;2.28;;
46643;SDS011;32371;51.032;5.816;2024-02-21T10:55:26;9.38;;;2.65;;
46643;SDS011;32371;51.032;5.816;2024-02-21T10:57:55;8.15;;;3.03;;
46643;SDS011;32371;51.032;5.816;2024-02-21T11:00:21;11.38;;;3.15;;
46643;SDS011;32371;51.032;5.816;2024-02-21T11:02:49;10.60;;;2.75;;
46643;SDS011;32371;51.032;5.816;2024-02-21T11:05:14;8.77;;;2.90;;
46643;SDS011;32371;51.032;5.816;2024-02-21T11:07:40;8.77;;;3.42;;
46643;SDS011;32371;51.032;5.816;2024-02-21T11:10:06;14.65;;;2.92;;
46643;SDS011;32371;51.032;5.816;2024-02-21T11:12:48;6.20;;;2.37;;
46643;SDS011;32371;51.032;5.816;2024-02-21T11:15:13;12.07;;;2.80;;
46643;SDS011;32371;51.032;5.816;2024-02-21T11:17:39;10.02;;;2.80;;
46643;SDS011;32371;51.032;5.816;2024-02-21T11:20:11;6.25;;;2.75;;
46643;SDS011;32371;51.032;5.816;2024-02-21T11:22:43;4.10;;;2.67;;
46643;SDS011;32371;51.032;5.816;2024-02-21T11:25:08;6.60;;;2.50;;
46643;SDS011;32371;51.032;5.816;2024-02-21T11:27:37;13.57;;;3.10;;
46643;SDS011;32371;51.032;5.816;2024-02-21T11:30:05;6.30;;;2.10;;
46643;SDS011;32371;51.032;5.816;2024-02-21T11:32:31;4.30;;;2.58;;
46643;SDS011;32371;51.032;5.816;2024-02-21T11:35:00;11.35;;;3.17;;
46643;SDS011;32371;51.032;5.816;2024-02-21T11:37:28;11.80;;;3.10;;
46643;SDS011;32371;51.032;5.816;2024-02-21T11:39:55;8.25;;;2.53;;
46643;SDS011;32371;51.032;5.816;2024-02-21T11:42:20;9.63;;;2.35;;
46643;SDS011;32371;51.032;5.816;2024-02-21T11:44:46;11.18;;;3.10;;
46643;SDS011;32371;51.032;5.816;2024-02-21T11:47:11;7.85;;;2.92;;
46643;SDS011;32371;51.032;5.816;2024-02-21T11:49:43;6.68;;;2.03;;
46643;SDS011;32371;51.032;5.816;2024-02-21T11:52:10;8.40;;;3.03;;
46643;SDS011;32371;51.032;5.816;2024-02-21T11:54:36;10.10;;;2.75;;
46643;SDS011;32371;51.032;5.816;2024-02-21T11:57:01;7.93;;;2.45;;
46643;SDS011;32371;51.032;5.816;2024-02-21T11:59:32;8.20;;;2.08;;
46643;SDS011;32371;51.032;5.816;2024-02-21T12:01:58;8.10;;;3.03;;
46643;SDS011;32371;51.032;5.816;2024-02-21T12:04:28;5.25;;;2.15;;
46643;SDS011;32371;51.032;5.816;2024-02-21T12:06:53;1.98;;;1.52;;
46643;SDS011;32371;51.032;5.816;2024-02-21T12:09:22;8.85;;;3.03;;
46643;SDS011;32371;51.032;5.816;2024-02-21T12:11:56;10.30;;;1.80;;
46643;SDS011;32371;51.032;5.816;2024-02-21T12:14:34;9.13;;;3.33;;
46643;SDS011;32371;51.032;5.816;2024-02-21T12:17:00;7.90;;;2.53;;
46643;SDS011;32371;51.032;5.816;2024-02-21T12:19:28;8.18;;;2.80;;
46643;SDS011;32371;51.032;5.816;2024-02-21T12:21:54;6.45;;;2.42;;
46643;SDS011;32371;51.032;5.816;2024-02-21T12:24:26;13.15;;;2.90;;
46643;SDS011;32371;51.032;5.816;2024-02-21T12:26:52;7.30;;;1.90;;
46643;SDS011;32371;51.032;5.816;2024-02-21T12:29:18;8.70;;;3.05;;
46643;SDS011;32371;51.032;5.816;2024-02-21T12:31:44;6.22;;;2.50;;
46643;SDS011;32371;51.032;5.816;2024-02-21T12:34:10;5.88;;;2.50;;
46643;SDS011;32371;51.032;5.816;2024-02-21T12:36:36;7.88;;;2.47;;
46643;SDS011;32371;51.032;5.816;2024-02-21T12:39:06;4.75;;;2.13;;
46643;SDS011;32371;51.032;5.816;2024-02-21T12:41:31;5.35;;;3.03;;
46643;SDS011;32371;51.032;5.816;2024-02-21T12:43:58;5.85;;;2.47;;
46643;SDS011;32371;51.032;5.816;2024-02-21T12:46:23;6.82;;;2.45;;
46643;SDS011;32371;51.032;5.816;2024-02-21T12:48:48;8.73;;;2.35;;
46643;SDS011;32371;51.032;5.816;2024-02-21T12:51:14;4.07;;;2.28;;
46643;SDS011;32371;51.032;5.816;2024-02-21T12:53:40;11.43;;;2.90;;
46643;SDS011;32371;51.032;5.816;2024-02-21T12:56:06;4.15;;;2.35;;
46643;SDS011;32371;51.032;5.816;2024-02-21T12:58:32;14.77;;;3.22;;
46643;SDS011;32371;51.032;5.816;2024-02-21T13:00:58;9.43;;;1.90;;
46643;SDS011;32371;51.032;5.816;2024-02-21T13:03:23;5.15;;;1.73;;
46643;SDS011;32371;51.032;5.816;2024-02-21T13:05:49;4.78;;;1.90;;
46643;SDS011;32371;51.032;5.816;2024-02-21T13:08:14;6.47;;;2.17;;
46643;SDS011;32371;51.032;5.816;2024-02-21T13:10:39;4.82;;;1.70;;
46643;SDS011;32371;51.032;5.816;2024-02-21T13:13:05;6.28;;;2.63;;
46643;SDS011;32371;51.032;5.816;2024-02-21T13:15:30;6.65;;;2.40;;
46643;SDS011;32371;51.032;5.816;2024-02-21T13:17:56;4.47;;;1.60;;
46643;SDS011;32371;51.032;5.816;2024-02-21T13:20:22;6.28;;;1.83;;
46643;SDS011;32371;51.032;5.816;2024-02-21T13:22:48;5.00;;;2.05;;
46643;SDS011;32371;51.032;5.816;2024-02-21T13:25:13;5.43;;;2.00;;
46643;SDS011;32371;51.032;5.816;2024-02-21T13:27:43;6.07;;;2.08;;
46643;SDS011;32371;51.032;5.816;2024-02-21T13:30:09;5.38;;;1.85;;
46643;SDS011;32371;51.032;5.816;2024-02-21T13:32:35;6.40;;;2.20;;
46643;SDS011;32371;51.032;5.816;2024-02-21T13:35:00;7.00;;;2.13;;
46643;SDS011;32371;51.032;5.816;2024-02-21T13:37:26;3.38;;;2.22;;
46643;SDS011;32371;51.032;5.816;2024-02-21T13:39:52;8.00;;;2.28;;
46643;SDS011;32371;51.032;5.816;2024-02-21T13:42:18;5.32;;;2.10;;
46643;SDS011;32371;51.032;5.816;2024-02-21T13:44:44;4.07;;;1.63;;
46643;SDS011;32371;51.032;5.816;2024-02-21T13:47:09;4.30;;;1.63;;
46643;SDS011;32371;51.032;5.816;2024-02-21T13:49:36;4.78;;;2.03;;
46643;SDS011;32371;51.032;5.816;2024-02-21T13:52:01;6.65;;;1.65;;
46643;SDS011;32371;51.032;5.816;2024-02-21T13:54:27;3.45;;;1.30;;
46643;SDS011;32371;51.032;5.816;2024-02-21T13:56:52;6.15;;;1.58;;
46643;SDS011;32371;51.032;5.816;2024-02-21T13:59:18;3.75;;;1.45;;
46643;SDS011;32371;51.032;5.816;2024-02-21T14:01:43;4.13;;;1.15;;
46643;SDS011;32371;51.032;5.816;2024-02-21T14:04:08;4.93;;;1.50;;
46643;SDS011;32371;51.032;5.816;2024-02-21T14:06:34;7.95;;;2.22;;
46643;SDS011;32371;51.032;5.816;2024-02-21T14:08:59;4.45;;;2.20;;
46643;SDS011;32371;51.032;5.816;2024-02-21T14:11:25;5.72;;;1.73;;
46643;SDS011;32371;51.032;5.816;2024-02-21T14:13:52;6.88;;;1.63;;
46643;SDS011;32371;51.032;5.816;2024-02-21T14:16:17;4.65;;;1.88;;
46643;SDS011;32371;51.032;5.816;2024-02-21T14:18:42;8.10;;;1.30;;
46643;SDS011;32371;51.032;5.816;2024-02-21T14:21:08;4.57;;;1.70;;
46643;SDS011;32371;51.032;5.816;2024-02-21T14:23:37;6.00;;;1.20;;
46643;SDS011;32371;51.032;5.816;2024-02-21T14:26:03;5.10;;;1.48;;
46643;SDS011;32371;51.032;5.816;2024-02-21T14:28:29;3.30;;;1.50;;
46643;SDS011;32371;51.032;5.816;2024-02-21T14:30:54;5.60;;;1.67;;
46643;SDS011;32371;51.032;5.816;2024-02-21T14:33:22;5.22;;;1.48;;
46643;SDS011;32371;51.032;5.816;2024-02-21T14:35:49;3.53;;;1.58;;
46643;SDS011;32371;51.032;5.816;2024-02-21T14:38:14;4.85;;;1.60;;